createdAt,value
2019-05-14T00:00:10.671Z,10.62
2019-05-14T00:01:11.844Z,10.61
2019-05-14T00:02:12.309Z,10.57
2019-05-14T00:03:11.278Z,10.60
2019-05-14T00:04:11.517Z,10.62
2019-05-14T00:05:12.179Z,10.60
2019-05-14T00:06:11.515Z,10.60
2019-05-14T00:07:11.577Z,10.52
2019-05-14T00:08:11.449Z,10.52
2019-05-14T00:09:12.167Z,10.54
2019-05-14T00:10:11.918Z,10.43
2019-05-14T00:11:12.807Z,10.39
2019-05-14T00:12:11.412Z,10.46
2019-05-14T00:13:12.042Z,10.42
2019-05-14T00:14:11.617Z,10.52
2019-05-14T00:15:11.065Z,10.42
2019-05-14T00:16:11.886Z,10.34
2019-05-14T00:17:11.280Z,10.35
2019-05-14T00:18:11.761Z,10.35
2019-05-14T00:19:11.206Z,10.26
2019-05-14T00:20:12.850Z,10.36
2019-05-14T00:21:12.035Z,10.39
2019-05-14T00:22:11.543Z,10.35
2019-05-14T00:23:11.833Z,10.28
2019-05-14T00:24:11.433Z,10.34
2019-05-14T00:25:11.744Z,10.30
2019-05-14T00:26:11.987Z,10.30
2019-05-14T00:27:11.414Z,10.27
2019-05-14T00:28:11.627Z,10.28
2019-05-14T00:29:11.359Z,10.14
2019-05-14T00:30:11.483Z,10.12
2019-05-14T00:31:11.970Z,10.20
2019-05-14T00:32:11.142Z,10.16
2019-05-14T00:33:11.492Z,10.24
2019-05-14T00:34:11.212Z,10.17
2019-05-14T00:35:11.174Z,10.14
2019-05-14T00:36:11.266Z,10.14
2019-05-14T00:37:11.499Z,10.06
2019-05-14T00:38:11.755Z,10.16
2019-05-14T00:39:11.274Z,10.10
2019-05-14T00:40:11.598Z,10.10
2019-05-14T00:41:11.089Z,10.06
2019-05-14T00:42:09.303Z,10.05
2019-05-14T00:43:11.290Z,10.09
2019-05-14T00:44:09.275Z,10.09
2019-05-14T00:45:11.385Z,9.99
2019-05-14T00:46:11.680Z,9.91
2019-05-14T00:47:11.239Z,10.01
2019-05-14T00:48:09.085Z,9.91
2019-05-14T00:49:09.043Z,9.87
2019-05-14T00:50:11.092Z,10.02
2019-05-14T00:51:11.003Z,9.88
2019-05-14T00:52:08.947Z,9.98
2019-05-14T00:53:08.916Z,9.93
2019-05-14T00:54:10.992Z,9.80
2019-05-14T00:55:08.855Z,9.85
2019-05-14T00:56:10.907Z,9.75
2019-05-14T00:57:08.784Z,9.81
2019-05-14T00:58:11.103Z,9.78
2019-05-14T00:59:08.719Z,9.69
2019-05-14T01:00:08.695Z,9.69
2019-05-14T01:01:08.657Z,9.77
2019-05-14T01:02:08.621Z,9.70
2019-05-14T01:03:08.584Z,9.65
2019-05-14T01:04:08.548Z,9.63
2019-05-14T01:05:08.525Z,9.75
2019-05-14T01:06:08.491Z,9.69
2019-05-14T01:07:08.450Z,9.73
2019-05-14T01:08:08.420Z,9.70
2019-05-14T01:09:08.384Z,9.69
2019-05-14T01:10:08.349Z,9.57
2019-05-14T01:11:08.323Z,9.42
2019-05-14T01:12:08.284Z,9.47
2019-05-14T01:13:08.258Z,9.55
2019-05-14T01:14:08.222Z,9.50
2019-05-14T01:15:11.636Z,9.50
2019-05-14T01:16:08.153Z,9.47
2019-05-14T01:17:08.128Z,9.47
2019-05-14T01:18:08.091Z,9.48
2019-05-14T01:19:08.057Z,9.48
2019-05-14T01:20:08.018Z,9.47
2019-05-14T01:21:07.997Z,9.44
2019-05-14T01:22:07.956Z,9.47
2019-05-14T01:23:07.929Z,9.34
2019-05-14T01:24:07.893Z,9.40
2019-05-14T01:25:07.863Z,9.40
2019-05-14T01:26:07.837Z,9.45
2019-05-14T01:27:07.791Z,9.45
2019-05-14T01:28:07.763Z,9.41
2019-05-14T01:29:07.724Z,9.47
2019-05-14T01:30:07.688Z,9.30
2019-05-14T01:31:07.659Z,9.36
2019-05-14T01:32:07.627Z,9.41
2019-05-14T01:33:07.589Z,9.34
2019-05-14T01:34:07.557Z,9.32
2019-05-14T01:35:11.814Z,9.37
2019-05-14T01:36:07.508Z,9.34
2019-05-14T01:37:07.452Z,9.42
2019-05-14T01:38:07.429Z,9.36
2019-05-14T01:39:07.389Z,9.34
2019-05-14T01:40:07.355Z,9.33
2019-05-14T01:41:07.329Z,9.24
2019-05-14T01:42:07.303Z,9.32
2019-05-14T01:43:07.264Z,9.34
2019-05-14T01:44:08.935Z,9.22
2019-05-14T01:45:20.235Z,9.27
2019-05-14T01:46:07.174Z,9.32
2019-05-14T01:47:07.125Z,9.29
2019-05-14T01:48:07.102Z,9.30
2019-05-14T01:49:07.054Z,9.27
2019-05-14T01:50:07.030Z,9.27
2019-05-14T01:51:07.001Z,9.30
2019-05-14T01:52:06.951Z,9.19
2019-05-14T01:53:06.925Z,9.18
2019-05-14T01:54:06.894Z,9.24
2019-05-14T01:55:06.871Z,9.09
2019-05-14T01:56:06.830Z,9.19
2019-05-14T01:57:06.787Z,9.11
2019-05-14T01:58:06.759Z,9.08
2019-05-14T01:59:06.722Z,9.14
2019-05-14T02:00:06.681Z,9.16
2019-05-14T02:01:06.680Z,9.09
2019-05-14T02:02:06.616Z,9.14
2019-05-14T02:03:06.590Z,9.14
2019-05-14T02:04:06.554Z,9.19
2019-05-14T02:05:06.532Z,9.11
2019-05-14T02:06:06.483Z,9.01
2019-05-14T02:07:06.452Z,9.18
2019-05-14T02:08:06.418Z,9.18
2019-05-14T02:09:06.386Z,9.08
2019-05-14T02:10:06.350Z,9.11
2019-05-14T02:11:06.321Z,9.04
2019-05-14T02:12:06.283Z,9.06
2019-05-14T02:13:06.261Z,8.96
2019-05-14T02:14:06.248Z,9.06
2019-05-14T02:15:06.185Z,9.03
2019-05-14T02:16:06.161Z,8.99
2019-05-14T02:17:06.115Z,8.95
2019-05-14T02:18:06.088Z,9.01
2019-05-14T02:19:06.051Z,9.01
2019-05-14T02:20:06.023Z,8.92
2019-05-14T02:21:05.979Z,8.92
2019-05-14T02:22:05.950Z,8.86
2019-05-14T02:23:05.914Z,8.90
2019-05-14T02:24:05.887Z,8.89
2019-05-14T02:25:05.846Z,8.88
2019-05-14T02:26:05.823Z,8.89
2019-05-14T02:27:05.782Z,8.71
2019-05-14T02:28:05.746Z,8.75
2019-05-14T02:29:05.727Z,8.77
2019-05-14T02:30:05.683Z,8.71
2019-05-14T02:31:09.123Z,8.81
2019-05-14T02:32:05.620Z,8.77
2019-05-14T02:33:05.588Z,8.83
2019-05-14T02:34:05.551Z,8.75
2019-05-14T02:35:05.521Z,8.72
2019-05-14T02:36:05.490Z,8.68
2019-05-14T02:37:08.995Z,8.67
2019-05-14T02:38:05.424Z,8.59
2019-05-14T02:39:05.382Z,8.65
2019-05-14T02:40:05.345Z,8.67
2019-05-14T02:41:05.311Z,8.67
2019-05-14T02:42:05.280Z,8.75
2019-05-14T02:43:05.243Z,8.68
2019-05-14T02:44:05.211Z,8.62
2019-05-14T02:45:05.185Z,8.56
2019-05-14T02:46:11.989Z,8.56
2019-05-14T02:47:05.128Z,8.52
2019-05-14T02:48:05.072Z,8.60
2019-05-14T02:49:05.043Z,8.57
2019-05-14T02:50:05.009Z,8.56
2019-05-14T02:51:04.982Z,8.63
2019-05-14T02:52:04.935Z,8.50
2019-05-14T02:53:04.913Z,8.49
2019-05-14T02:54:04.868Z,8.47
2019-05-14T02:55:04.837Z,8.46
2019-05-14T02:56:04.809Z,8.42
2019-05-14T02:57:04.773Z,8.49
2019-05-14T02:58:04.746Z,8.46
2019-05-14T02:59:05.989Z,8.49
2019-05-14T03:00:04.672Z,8.44
2019-05-14T03:01:04.641Z,8.44
2019-05-14T03:02:04.600Z,8.47
2019-05-14T03:03:04.573Z,8.42
2019-05-14T03:04:04.535Z,8.44
2019-05-14T03:05:04.505Z,8.47
2019-05-14T03:06:04.476Z,8.53
2019-05-14T03:07:04.430Z,8.56
2019-05-14T03:08:04.397Z,8.53
2019-05-14T03:09:04.365Z,8.44
2019-05-14T03:10:04.333Z,8.46
2019-05-14T03:11:04.299Z,8.39
2019-05-14T03:12:04.266Z,8.41
2019-05-14T03:13:04.229Z,8.28
2019-05-14T03:14:04.212Z,8.28
2019-05-14T03:15:04.158Z,8.31
2019-05-14T03:16:21.002Z,8.23
2019-05-14T03:17:04.124Z,8.29
2019-05-14T03:18:04.062Z,8.29
2019-05-14T03:19:04.036Z,8.28
2019-05-14T03:20:04.028Z,8.29
2019-05-14T03:21:03.965Z,8.26
2019-05-14T03:22:03.923Z,8.28
2019-05-14T03:23:08.898Z,8.26
2019-05-14T03:24:03.862Z,8.20
2019-05-14T03:25:03.822Z,8.28
2019-05-14T03:26:03.828Z,8.26
2019-05-14T03:27:03.759Z,8.26
2019-05-14T03:28:03.726Z,8.21
2019-05-14T03:29:03.699Z,8.21
2019-05-14T03:30:03.656Z,8.14
2019-05-14T03:31:05.466Z,8.26
2019-05-14T03:32:03.981Z,8.21
2019-05-14T03:33:03.741Z,8.38
2019-05-14T03:34:04.008Z,8.29
2019-05-14T03:35:04.628Z,8.32
2019-05-14T03:36:09.117Z,8.29
2019-05-14T03:37:04.204Z,8.23
2019-05-14T03:38:03.389Z,8.21
2019-05-14T03:39:03.359Z,8.32
2019-05-14T03:40:03.319Z,8.24
2019-05-14T03:41:03.287Z,8.28
2019-05-14T03:42:03.246Z,8.41
2019-05-14T03:43:03.214Z,8.39
2019-05-14T03:44:03.183Z,8.39
2019-05-14T03:45:03.167Z,8.38
2019-05-14T03:46:03.115Z,8.28
2019-05-14T03:47:05.346Z,8.28
2019-05-14T03:48:03.053Z,8.28
2019-05-14T03:49:03.020Z,8.31
2019-05-14T03:50:02.972Z,8.32
2019-05-14T03:51:02.949Z,8.28
2019-05-14T03:52:02.947Z,8.35
2019-05-14T03:53:02.872Z,8.32
2019-05-14T03:54:07.453Z,8.24
2019-05-14T03:55:04.808Z,8.37
2019-05-14T03:56:02.773Z,8.42
2019-05-14T03:57:02.743Z,8.31
2019-05-14T03:58:02.701Z,8.42
2019-05-14T03:59:02.692Z,8.29
2019-05-14T04:00:02.663Z,8.28
2019-05-14T04:01:02.662Z,8.29
2019-05-14T04:02:02.570Z,8.35
2019-05-14T04:03:02.535Z,8.32
2019-05-14T04:04:02.504Z,8.32
2019-05-14T04:05:02.463Z,8.20
2019-05-14T04:06:02.518Z,8.31
2019-05-14T04:07:02.405Z,8.26
2019-05-14T04:08:02.369Z,8.26
2019-05-14T04:09:02.332Z,8.26
2019-05-14T04:10:02.296Z,8.24
2019-05-14T04:11:02.271Z,8.29
2019-05-14T04:12:02.233Z,8.38
2019-05-14T04:13:02.204Z,8.41
2019-05-14T04:14:02.205Z,8.44
2019-05-14T04:15:02.173Z,8.47
2019-05-14T04:16:02.109Z,8.47
2019-05-14T04:17:09.732Z,8.38
2019-05-14T04:18:02.036Z,8.41
2019-05-14T04:19:01.992Z,8.39
2019-05-14T04:20:01.962Z,8.38
2019-05-14T04:21:01.929Z,8.23
2019-05-14T04:22:01.901Z,8.42
2019-05-14T04:23:01.870Z,8.35
2019-05-14T04:24:01.820Z,8.41
2019-05-14T04:25:01.785Z,8.44
2019-05-14T04:26:01.766Z,8.56
2019-05-14T04:27:07.407Z,8.56
2019-05-14T04:28:01.685Z,8.53
2019-05-14T04:29:01.667Z,8.53
2019-05-14T04:30:01.616Z,8.46
2019-05-14T04:31:01.594Z,8.59
2019-05-14T04:32:01.550Z,8.57
2019-05-14T04:33:01.526Z,8.53
2019-05-14T04:34:01.491Z,8.47
2019-05-14T04:35:01.464Z,8.28
2019-05-14T04:36:01.418Z,8.21
2019-05-14T04:37:01.400Z,8.31
2019-05-14T04:38:01.357Z,8.34
2019-05-14T04:39:01.337Z,8.28
2019-05-14T04:40:02.969Z,8.26
2019-05-14T04:41:01.255Z,8.31
2019-05-14T04:42:01.250Z,8.37
2019-05-14T04:43:01.202Z,8.26
2019-05-14T04:44:01.161Z,8.24
2019-05-14T04:45:05.454Z,8.37
2019-05-14T04:46:01.115Z,8.39
2019-05-14T04:47:20.203Z,8.31
2019-05-14T04:48:01.008Z,8.24
2019-05-14T04:49:00.979Z,8.41
2019-05-14T04:50:00.954Z,8.44
2019-05-14T04:51:00.934Z,8.49
2019-05-14T04:52:00.873Z,8.41
2019-05-14T04:53:00.855Z,8.46
2019-05-14T04:54:00.817Z,8.44
2019-05-14T04:55:00.782Z,8.38
2019-05-14T04:56:00.738Z,8.55
2019-05-14T04:57:00.703Z,8.44
2019-05-14T04:58:00.672Z,8.55
2019-05-14T04:59:00.647Z,8.62
2019-05-14T05:00:00.616Z,8.62
2019-05-14T05:01:01.058Z,8.68
2019-05-14T05:02:00.554Z,8.81
2019-05-14T05:03:00.498Z,8.74
2019-05-14T05:04:00.504Z,8.75
2019-05-14T05:05:00.435Z,8.71
2019-05-14T05:06:00.399Z,8.72
2019-05-14T05:07:00.372Z,8.68
2019-05-14T05:08:00.342Z,8.71
2019-05-14T05:09:00.348Z,8.80
2019-05-14T05:10:00.273Z,8.77
2019-05-14T05:11:00.532Z,8.70
2019-05-14T05:12:00.202Z,8.71
2019-05-14T05:13:00.167Z,8.74
2019-05-14T05:14:00.139Z,8.70
2019-05-14T05:15:00.093Z,8.67
2019-05-14T05:16:00.057Z,8.78
2019-05-14T05:17:00.043Z,8.65
2019-05-14T05:17:59.994Z,8.72
2019-05-14T05:18:59.980Z,8.71
2019-05-14T05:19:59.933Z,8.68
2019-05-14T05:20:59.905Z,8.75
2019-05-14T05:21:59.859Z,8.72
2019-05-14T05:22:59.838Z,8.78
2019-05-14T05:23:59.803Z,8.75
2019-05-14T05:24:59.763Z,8.75
2019-05-14T05:25:59.730Z,8.78
2019-05-14T05:26:59.691Z,8.86
2019-05-14T05:27:59.983Z,8.85
2019-05-14T05:29:05.859Z,8.98
2019-05-14T05:29:59.600Z,8.98
2019-05-14T05:31:01.471Z,9.01
2019-05-14T05:31:59.585Z,9.08
2019-05-14T05:32:59.772Z,9.04
2019-05-14T05:33:59.460Z,9.14
2019-05-14T05:34:59.429Z,9.14
2019-05-14T05:35:59.631Z,9.12
2019-05-14T05:36:59.481Z,9.23
2019-05-14T05:37:59.355Z,9.26
2019-05-14T05:38:59.537Z,9.22
2019-05-14T05:39:59.271Z,9.22
2019-05-14T05:41:00.267Z,9.23
2019-05-14T05:41:59.183Z,9.24
2019-05-14T05:42:59.163Z,9.30
2019-05-14T05:43:59.140Z,9.22
2019-05-14T05:44:59.086Z,9.36
2019-05-14T05:45:59.388Z,9.41
2019-05-14T05:46:59.751Z,9.40
2019-05-14T05:48:01.618Z,9.45
2019-05-14T05:48:58.965Z,9.44
2019-05-14T05:49:58.919Z,9.47
2019-05-14T05:50:59.316Z,9.45
2019-05-14T05:51:59.297Z,9.55
2019-05-14T05:52:58.827Z,9.52
2019-05-14T05:53:58.993Z,9.62
2019-05-14T05:54:58.763Z,9.65
2019-05-14T05:55:59.457Z,9.60
2019-05-14T05:56:58.740Z,9.63
2019-05-14T05:57:58.856Z,9.62
2019-05-14T05:59:00.666Z,9.66
2019-05-14T05:59:58.860Z,9.67
2019-05-14T06:00:59.283Z,9.80
2019-05-14T06:01:58.921Z,9.80
2019-05-14T06:02:59.057Z,9.78
2019-05-14T06:03:58.476Z,9.87
2019-05-14T06:04:58.735Z,9.96
2019-05-14T06:05:59.386Z,9.88
2019-05-14T06:06:59.766Z,9.91
2019-05-14T06:07:58.992Z,9.98
2019-05-14T06:08:58.503Z,9.94
2019-05-14T06:09:58.795Z,10.08
2019-05-14T06:10:59.177Z,10.09
2019-05-14T06:11:59.200Z,10.16
2019-05-14T06:12:58.657Z,10.16
2019-05-14T06:13:58.864Z,10.14
2019-05-14T06:14:58.108Z,10.14
2019-05-14T06:15:59.198Z,10.23
2019-05-14T06:16:59.133Z,10.27
2019-05-14T06:18:11.610Z,10.24
2019-05-14T06:18:58.782Z,10.24
2019-05-14T06:19:59.164Z,10.21
2019-05-14T06:20:58.603Z,10.21
2019-05-14T06:21:59.637Z,10.20
2019-05-14T06:22:58.861Z,10.12
2019-05-14T06:23:58.281Z,10.16
2019-05-14T06:24:58.646Z,10.14
2019-05-14T06:25:59.800Z,10.23
2019-05-14T06:26:58.609Z,10.30
2019-05-14T06:27:59.055Z,10.27
2019-05-14T06:28:59.687Z,10.28
2019-05-14T06:29:58.299Z,10.27
2019-05-14T06:30:58.898Z,10.43
2019-05-14T06:31:58.731Z,10.36
2019-05-14T06:32:59.357Z,10.43
2019-05-14T06:33:59.169Z,10.49
2019-05-14T06:34:59.361Z,10.52
2019-05-14T06:35:59.146Z,10.52
2019-05-14T06:36:59.149Z,10.57
2019-05-14T06:37:58.197Z,10.65
2019-05-14T06:38:58.584Z,10.65
2019-05-14T06:39:58.568Z,10.76
2019-05-14T06:40:59.340Z,10.79
2019-05-14T06:41:58.566Z,10.76
2019-05-14T06:42:59.105Z,10.82
2019-05-14T06:43:59.120Z,10.85
2019-05-14T06:44:58.586Z,10.91
2019-05-14T06:45:58.606Z,10.94
2019-05-14T06:46:59.056Z,10.83
2019-05-14T06:47:59.202Z,11.03
2019-05-14T06:48:59.049Z,10.95
2019-05-14T06:49:59.085Z,11.05
2019-05-14T06:50:58.351Z,11.03
2019-05-14T06:51:59.315Z,11.11
2019-05-14T06:52:58.162Z,11.13
2019-05-14T06:53:58.822Z,11.19
2019-05-14T06:54:58.258Z,11.19
2019-05-14T06:55:58.787Z,11.30
2019-05-14T06:56:58.229Z,11.38
2019-05-14T06:57:58.539Z,11.45
2019-05-14T06:58:58.496Z,11.51
2019-05-14T06:59:58.739Z,11.56
2019-05-14T07:00:58.707Z,11.55
2019-05-14T07:01:58.009Z,11.54
2019-05-14T07:02:58.324Z,11.59
2019-05-14T07:03:58.068Z,11.67
2019-05-14T07:04:58.810Z,11.71
2019-05-14T07:05:56.461Z,11.77
2019-05-14T07:06:58.857Z,11.84
2019-05-14T07:07:59.518Z,11.74
2019-05-14T07:08:58.677Z,11.84
2019-05-14T07:09:58.224Z,11.77
2019-05-14T07:10:56.253Z,11.95
2019-05-14T07:11:58.427Z,11.99
2019-05-14T07:12:56.189Z,12.03
2019-05-14T07:13:58.132Z,12.00
2019-05-14T07:14:58.408Z,12.03
2019-05-14T07:15:58.293Z,12.17
2019-05-14T07:16:58.596Z,12.21
2019-05-14T07:17:58.283Z,12.29
2019-05-14T07:18:56.001Z,12.25
2019-05-14T07:19:58.058Z,12.32
2019-05-14T07:20:55.952Z,12.29
2019-05-14T07:21:58.112Z,12.22
2019-05-14T07:22:55.875Z,12.25
2019-05-14T07:23:55.848Z,12.26
2019-05-14T07:24:55.813Z,12.32
2019-05-14T07:25:55.775Z,12.36
2019-05-14T07:26:58.342Z,12.46
2019-05-14T07:27:58.166Z,12.46
2019-05-14T07:28:55.684Z,12.43
2019-05-14T07:29:58.230Z,12.35
2019-05-14T07:30:55.634Z,12.43
2019-05-14T07:31:58.082Z,12.47
2019-05-14T07:32:55.554Z,12.55
2019-05-14T07:33:58.086Z,12.58
2019-05-14T07:34:55.494Z,12.79
2019-05-14T07:35:55.461Z,12.83
2019-05-14T07:36:55.441Z,12.98
2019-05-14T07:37:55.414Z,12.91
2019-05-14T07:38:56.746Z,12.98
2019-05-14T07:39:55.340Z,13.01
2019-05-14T07:40:55.350Z,12.96
2019-05-14T07:41:55.344Z,12.91
2019-05-14T07:42:55.250Z,12.87
2019-05-14T07:43:55.214Z,12.91
2019-05-14T07:44:55.196Z,12.90
2019-05-14T07:45:55.155Z,12.87
2019-05-14T07:46:55.125Z,13.01
2019-05-14T07:47:55.086Z,13.09
2019-05-14T07:49:07.157Z,13.09
2019-05-14T07:49:55.022Z,13.08
2019-05-14T07:50:55.062Z,13.23
2019-05-14T07:51:54.962Z,13.24
2019-05-14T07:52:54.928Z,13.24
2019-05-14T07:53:54.909Z,13.17
2019-05-14T07:54:54.872Z,13.14
2019-05-14T07:55:54.882Z,13.04
2019-05-14T07:56:54.810Z,13.08
2019-05-14T07:57:54.778Z,13.24
2019-05-14T07:58:54.781Z,13.08
2019-05-14T07:59:54.812Z,13.11
2019-05-14T08:00:54.729Z,13.24
2019-05-14T08:01:54.723Z,13.29
2019-05-14T08:02:54.638Z,13.27
2019-05-14T08:03:54.592Z,13.45
2019-05-14T08:04:54.559Z,13.43
2019-05-14T08:05:54.548Z,13.42
2019-05-14T08:06:54.499Z,13.45
2019-05-14T08:07:54.467Z,13.40
2019-05-14T08:08:54.439Z,13.36
2019-05-14T08:09:54.452Z,13.40
2019-05-14T08:10:54.380Z,13.45
2019-05-14T08:11:54.346Z,13.36
2019-05-14T08:12:54.310Z,13.26
2019-05-14T08:13:54.278Z,13.27
2019-05-14T08:15:10.951Z,13.38
2019-05-14T08:15:54.219Z,13.40
2019-05-14T08:16:54.193Z,13.57
2019-05-14T08:17:54.168Z,13.55
2019-05-14T08:18:54.146Z,13.57
2019-05-14T08:19:54.118Z,13.42
2019-05-14T08:20:54.063Z,13.53
2019-05-14T08:21:54.032Z,13.47
2019-05-14T08:22:54.010Z,13.46
2019-05-14T08:23:53.974Z,13.76
2019-05-14T08:24:53.941Z,13.80
2019-05-14T08:25:53.915Z,13.98
2019-05-14T08:26:53.878Z,14.04
2019-05-14T08:27:53.845Z,14.15
2019-05-14T08:28:53.814Z,14.22
2019-05-14T08:29:53.789Z,14.21
2019-05-14T08:30:53.756Z,14.18
2019-05-14T08:31:53.723Z,14.11
2019-05-14T08:32:53.699Z,14.15
2019-05-14T08:33:53.675Z,14.15
2019-05-14T08:34:53.641Z,14.28
2019-05-14T08:35:53.607Z,14.18
2019-05-14T08:36:53.569Z,14.34
2019-05-14T08:38:05.512Z,14.31
2019-05-14T08:38:53.513Z,14.37
2019-05-14T08:39:53.485Z,14.44
2019-05-14T08:40:53.452Z,14.28
2019-05-14T08:41:59.542Z,14.38
2019-05-14T08:42:53.395Z,14.34
2019-05-14T08:43:53.365Z,14.33
2019-05-14T08:44:53.332Z,14.23
2019-05-14T08:45:53.299Z,14.33
2019-05-14T08:46:53.273Z,14.46
2019-05-14T08:47:53.248Z,14.36
2019-05-14T08:48:53.205Z,14.44
2019-05-14T08:49:53.184Z,14.46
2019-05-14T08:50:53.149Z,14.51
2019-05-14T08:51:53.112Z,14.48
2019-05-14T08:52:53.094Z,14.49
2019-05-14T08:53:53.053Z,14.58
2019-05-14T08:55:05.405Z,14.69
2019-05-14T08:55:52.991Z,14.86
2019-05-14T08:56:52.967Z,14.87
2019-05-14T08:57:53.007Z,14.92
2019-05-14T08:58:52.915Z,15.04
2019-05-14T08:59:52.879Z,14.99
2019-05-14T09:00:52.842Z,14.96
2019-05-14T09:02:02.379Z,15.07
2019-05-14T09:02:52.801Z,15.12
2019-05-14T09:03:52.785Z,15.04
2019-05-14T09:04:54.811Z,15.03
2019-05-14T09:05:52.691Z,15.04
2019-05-14T09:06:52.685Z,15.05
2019-05-14T09:07:52.649Z,15.14
2019-05-14T09:08:52.711Z,15.10
2019-05-14T09:09:52.575Z,15.19
2019-05-14T09:10:52.549Z,15.15
2019-05-14T09:11:52.512Z,15.07
2019-05-14T09:12:52.476Z,15.10
2019-05-14T09:13:52.451Z,14.99
2019-05-14T09:14:52.432Z,15.05
2019-05-14T09:15:52.396Z,15.23
2019-05-14T09:16:52.410Z,15.26
2019-05-14T09:17:52.402Z,15.27
2019-05-14T09:18:52.319Z,15.19
2019-05-14T09:20:02.226Z,15.17
2019-05-14T09:20:52.296Z,15.30
2019-05-14T09:21:52.251Z,15.17
2019-05-14T09:22:52.230Z,15.07
2019-05-14T09:23:52.165Z,15.20
2019-05-14T09:24:52.166Z,15.40
2019-05-14T09:25:53.409Z,15.60
2019-05-14T09:26:52.071Z,15.83
2019-05-14T09:27:52.034Z,16.03
2019-05-14T09:28:52.036Z,16.14
2019-05-14T09:29:51.987Z,16.03
2019-05-14T09:30:51.995Z,15.76
2019-05-14T09:31:51.945Z,15.52
2019-05-14T09:32:51.924Z,15.45
2019-05-14T09:33:51.869Z,15.43
2019-05-14T09:34:51.861Z,15.30
2019-05-14T09:36:08.009Z,15.29
2019-05-14T09:36:51.785Z,15.33
2019-05-14T09:37:51.769Z,15.40
2019-05-14T09:38:51.757Z,15.47
2019-05-14T09:39:51.724Z,15.58
2019-05-14T09:41:06.926Z,15.77
2019-05-14T09:41:51.664Z,16.05
2019-05-14T09:42:51.658Z,16.22
2019-05-14T09:43:51.600Z,16.49
2019-05-14T09:44:51.571Z,16.59
2019-05-14T09:45:51.550Z,16.83
2019-05-14T09:46:51.504Z,17.02
2019-05-14T09:47:51.488Z,17.12
2019-05-14T09:48:51.474Z,16.84
2019-05-14T09:49:51.432Z,16.76
2019-05-14T09:50:51.354Z,16.55
2019-05-14T09:51:52.993Z,16.52
2019-05-14T09:52:51.301Z,16.49
2019-05-14T09:53:51.271Z,16.69
2019-05-14T09:54:51.240Z,16.80
2019-05-14T09:55:51.209Z,16.79
2019-05-14T09:56:51.180Z,16.72
2019-05-14T09:57:51.158Z,16.67
2019-05-14T09:58:51.128Z,16.82
2019-05-14T09:59:51.098Z,16.64
2019-05-14T10:00:51.065Z,16.51
2019-05-14T10:01:51.043Z,16.57
2019-05-14T10:02:51.080Z,16.73
2019-05-14T10:03:50.978Z,16.84
2019-05-14T10:04:51.011Z,17.10
2019-05-14T10:05:50.950Z,17.28
2019-05-14T10:06:50.924Z,17.39
2019-05-14T10:07:50.873Z,17.35
2019-05-14T10:08:50.831Z,17.27
2019-05-14T10:09:50.811Z,17.32
2019-05-14T10:10:50.852Z,17.30
2019-05-14T10:11:50.752Z,17.31
2019-05-14T10:12:56.353Z,17.35
2019-05-14T10:13:50.687Z,17.41
2019-05-14T10:14:50.667Z,17.41
2019-05-14T10:15:50.650Z,17.47
2019-05-14T10:16:50.603Z,17.56
2019-05-14T10:17:50.584Z,17.75
2019-05-14T10:18:52.881Z,17.91
2019-05-14T10:19:50.516Z,17.99
2019-05-14T10:20:50.498Z,18.15
2019-05-14T10:21:50.469Z,18.09
2019-05-14T10:22:50.441Z,18.05
2019-05-14T10:23:50.410Z,17.93
2019-05-14T10:24:50.381Z,17.83
2019-05-14T10:25:50.369Z,17.81
2019-05-14T10:26:50.341Z,17.66
2019-05-14T10:27:50.305Z,17.32
2019-05-14T10:28:50.291Z,16.99
2019-05-14T10:29:50.242Z,16.87
2019-05-14T10:30:50.214Z,16.73
2019-05-14T10:31:50.223Z,16.95
2019-05-14T10:32:50.159Z,16.72
2019-05-14T10:33:50.136Z,16.76
2019-05-14T10:34:50.105Z,16.99
2019-05-14T10:35:50.085Z,17.06
2019-05-14T10:36:50.044Z,17.10
2019-05-14T10:37:52.571Z,17.20
2019-05-14T10:38:50.031Z,17.30
2019-05-14T10:39:49.963Z,17.14
2019-05-14T10:40:49.930Z,17.22
2019-05-14T10:41:49.907Z,16.98
2019-05-14T10:42:49.872Z,16.77
2019-05-14T10:43:49.958Z,16.57
2019-05-14T10:44:49.816Z,16.51
2019-05-14T10:45:49.798Z,16.79
2019-05-14T10:46:49.759Z,16.88
2019-05-14T10:47:49.735Z,17.22
2019-05-14T10:48:49.711Z,17.32
2019-05-14T10:49:49.679Z,17.46
2019-05-14T10:50:57.292Z,17.69
2019-05-14T10:51:49.632Z,17.88
2019-05-14T10:52:49.601Z,17.93
2019-05-14T10:53:49.570Z,18.15
2019-05-14T10:54:55.753Z,18.17
2019-05-14T10:55:49.504Z,18.27
2019-05-14T10:56:49.694Z,18.36
2019-05-14T10:57:54.196Z,18.54
2019-05-14T10:58:49.431Z,18.58
2019-05-14T10:59:49.407Z,18.63
2019-05-14T11:00:49.642Z,18.76
2019-05-14T11:01:49.351Z,18.76
2019-05-14T11:02:49.356Z,18.83
2019-05-14T11:03:49.302Z,18.93
2019-05-14T11:04:49.257Z,19.08
2019-05-14T11:05:49.232Z,19.30
2019-05-14T11:06:49.264Z,19.17
2019-05-14T11:07:49.180Z,19.09
2019-05-14T11:08:49.555Z,19.22
2019-05-14T11:09:49.141Z,19.20
2019-05-14T11:10:49.886Z,19.35
2019-05-14T11:11:49.074Z,19.53
2019-05-14T11:12:50.649Z,19.60
2019-05-14T11:13:49.014Z,19.44
2019-05-14T11:14:49.500Z,19.32
2019-05-14T11:15:48.984Z,19.12
2019-05-14T11:16:48.933Z,19.16
2019-05-14T11:17:49.176Z,19.39
2019-05-14T11:18:49.784Z,19.63
2019-05-14T11:19:48.851Z,19.53
2019-05-14T11:20:51.548Z,19.52
2019-05-14T11:21:48.797Z,19.45
2019-05-14T11:22:49.238Z,19.32
2019-05-14T11:23:49.205Z,19.64
2019-05-14T11:24:49.280Z,19.92
2019-05-14T11:25:48.868Z,20.02
2019-05-14T11:26:48.995Z,19.97
2019-05-14T11:27:49.330Z,20.63
2019-05-14T11:28:49.296Z,21.20
2019-05-14T11:29:50.517Z,21.45
2019-05-14T11:30:49.378Z,21.26
2019-05-14T11:31:48.695Z,21.26
2019-05-14T11:32:49.238Z,21.71
2019-05-14T11:33:49.626Z,21.84
2019-05-14T11:34:50.007Z,22.22
2019-05-14T11:35:48.436Z,22.16
2019-05-14T11:36:49.675Z,21.88
2019-05-14T11:37:48.376Z,21.82
2019-05-14T11:38:50.681Z,22.25
2019-05-14T11:39:48.827Z,21.63
2019-05-14T11:40:49.511Z,21.47
2019-05-14T11:41:49.282Z,21.26
2019-05-14T11:42:49.531Z,21.38
2019-05-14T11:43:49.204Z,21.45
2019-05-14T11:44:48.805Z,21.50
2019-05-14T11:45:48.595Z,21.18
2019-05-14T11:46:57.082Z,21.25
2019-05-14T11:47:48.847Z,20.90
2019-05-14T11:48:50.023Z,20.95
2019-05-14T11:49:49.292Z,20.83
2019-05-14T11:50:49.154Z,20.79
2019-05-14T11:52:02.018Z,21.18
2019-05-14T11:52:48.466Z,20.56
2019-05-14T11:53:49.389Z,20.58
2019-05-14T11:54:49.387Z,20.27
2019-05-14T11:55:50.295Z,20.15
2019-05-14T11:56:48.355Z,20.22
2019-05-14T11:57:48.540Z,20.14
2019-05-14T11:58:47.864Z,20.05
2019-05-14T11:59:47.847Z,19.57
2019-05-14T12:00:47.815Z,19.38
2019-05-14T12:01:49.370Z,19.47
2019-05-14T12:02:47.775Z,19.47
2019-05-14T12:03:50.323Z,19.45
2019-05-14T12:04:47.720Z,19.23
2019-05-14T12:05:49.501Z,19.08
2019-05-14T12:06:47.668Z,19.38
2019-05-14T12:07:47.639Z,19.79
2019-05-14T12:08:47.612Z,19.54
2019-05-14T12:09:47.590Z,19.75
2019-05-14T12:10:47.573Z,19.96
2019-05-14T12:11:47.545Z,19.99
2019-05-14T12:12:48.959Z,19.89
2019-05-14T12:13:48.664Z,19.57
2019-05-14T12:14:48.476Z,19.34
2019-05-14T12:15:48.598Z,19.77
2019-05-14T12:16:49.459Z,20.05
2019-05-14T12:17:51.201Z,20.44
2019-05-14T12:18:48.390Z,20.65
2019-05-14T12:19:48.476Z,20.79
2019-05-14T12:20:49.705Z,20.42
2019-05-14T12:22:02.934Z,20.42
2019-05-14T12:22:48.745Z,20.34
2019-05-14T12:23:47.237Z,20.32
2019-05-14T12:24:49.197Z,19.92
2019-05-14T12:25:49.095Z,19.70
2019-05-14T12:26:49.107Z,19.22
2019-05-14T12:27:49.573Z,19.34
2019-05-14T12:28:49.418Z,19.81
2019-05-14T12:29:49.733Z,20.32
2019-05-14T12:30:48.953Z,20.58
2019-05-14T12:31:50.533Z,20.85
2019-05-14T12:32:49.793Z,20.95
2019-05-14T12:33:48.867Z,21.43
2019-05-14T12:34:48.881Z,21.51
2019-05-14T12:35:49.457Z,21.77
2019-05-14T12:36:49.300Z,21.85
2019-05-14T12:37:46.870Z,22.43
2019-05-14T12:38:46.849Z,22.27
2019-05-14T12:39:46.812Z,22.49
2019-05-14T12:40:46.795Z,22.43
2019-05-14T12:41:48.860Z,22.37
2019-05-14T12:42:49.611Z,22.41
2019-05-14T12:43:46.722Z,22.66
2019-05-14T12:44:46.701Z,22.73
2019-05-14T12:45:46.670Z,22.53
2019-05-14T12:46:48.951Z,22.59
2019-05-14T12:47:49.840Z,22.43
2019-05-14T12:48:49.262Z,22.74
2019-05-14T12:49:48.348Z,22.55
2019-05-14T12:50:48.857Z,22.67
2019-05-14T12:51:49.134Z,22.89
2019-05-14T12:52:48.532Z,22.91
2019-05-14T12:53:48.672Z,23.08
2019-05-14T12:54:46.454Z,23.26
2019-05-14T12:55:48.733Z,22.88
2019-05-14T12:56:49.255Z,23.42
2019-05-14T12:57:48.514Z,23.29
2019-05-14T12:58:48.807Z,22.80
2019-05-14T12:59:48.581Z,22.00
2019-05-14T13:00:48.499Z,22.00
2019-05-14T13:01:49.023Z,21.91
2019-05-14T13:02:46.275Z,21.74